sensor_id;sensor_type;location;lat;lon;timestamp;pressure;altitude;pressure_sealevel;temperature;humidity
34177;BME280;20450;49.074;9.158;2023-06-10T00:00:28;99319.38;;;20.27;57.99
34177;BME280;20450;49.074;9.158;2023-06-10T00:02:55;99329.38;;;20.13;58.75
34177;BME280;20450;49.074;9.158;2023-06-10T00:05:22;99330.75;;;20.05;59.06
34177;BME280;20450;49.074;9.158;2023-06-10T00:07:49;99323.97;;;19.93;59.36
34177;BME280;20450;49.074;9.158;2023-06-10T00:10:16;99321.78;;;19.90;59.28
34177;BME280;20450;49.074;9.158;2023-06-10T00:12:44;99332.53;;;19.86;59.33
34177;BME280;20450;49.074;9.158;2023-06-10T00:15:11;99328.16;;;19.80;59.52
34177;BME280;20450;49.074;9.158;2023-06-10T00:17:39;99319.41;;;19.78;59.28
34177;BME280;20450;49.074;9.158;2023-06-10T00:20:08;99316.50;;;19.60;59.70
34177;BME280;20450;49.074;9.158;2023-06-10T00:22:36;99326.91;;;19.58;59.75
34177;BME280;20450;49.074;9.158;2023-06-10T00:25:04;99327.72;;;19.58;60.09
34177;BME280;20450;49.074;9.158;2023-06-10T00:27:32;99317.28;;;19.60;59.89
34177;BME280;20450;49.074;9.158;2023-06-10T00:30:01;99325.28;;;19.57;59.36
34177;BME280;20450;49.074;9.158;2023-06-10T00:32:30;99327.50;;;19.44;60.13
34177;BME280;20450;49.074;9.158;2023-06-10T00:34:57;99333.50;;;19.52;59.82
34177;BME280;20450;49.074;9.158;2023-06-10T00:37:24;99334.63;;;19.51;59.51
34177;BME280;20450;49.074;9.158;2023-06-10T00:39:52;99338.47;;;19.39;59.91
34177;BME280;20450;49.074;9.158;2023-06-10T00:42:20;99335.75;;;19.24;60.26
34177;BME280;20450;49.074;9.158;2023-06-10T00:44:47;99341.53;;;19.28;60.29
34177;BME280;20450;49.074;9.158;2023-06-10T00:47:16;99340.16;;;19.30;60.10
34177;BME280;20450;49.074;9.158;2023-06-10T00:49:44;99339.59;;;19.23;60.03
34177;BME280;20450;49.074;9.158;2023-06-10T00:52:13;99334.69;;;19.15;60.13
34177;BME280;20450;49.074;9.158;2023-06-10T00:54:43;99340.19;;;19.00;60.86
34177;BME280;20450;49.074;9.158;2023-06-10T00:57:12;99347.31;;;19.01;60.86
34177;BME280;20450;49.074;9.158;2023-06-10T00:59:39;99346.50;;;19.06;61.96
34177;BME280;20450;49.074;9.158;2023-06-10T01:02:07;99337.97;;;19.12;63.83
34177;BME280;20450;49.074;9.158;2023-06-10T01:04:35;99343.44;;;19.17;63.66
34177;BME280;20450;49.074;9.158;2023-06-10T01:07:09;99345.06;;;19.23;65.45
34177;BME280;20450;49.074;9.158;2023-06-10T01:09:55;99346.44;;;19.21;64.32
34177;BME280;20450;49.074;9.158;2023-06-10T01:12:34;99342.66;;;19.07;62.15
34177;BME280;20450;49.074;9.158;2023-06-10T01:15:08;99348.41;;;19.10;61.31
34177;BME280;20450;49.074;9.158;2023-06-10T01:17:37;99352.25;;;19.04;60.81
34177;BME280;20450;49.074;9.158;2023-06-10T01:20:23;99356.06;;;19.08;61.57
34177;BME280;20450;49.074;9.158;2023-06-10T01:22:52;99352.78;;;19.11;62.34
34177;BME280;20450;49.074;9.158;2023-06-10T01:25:20;99345.97;;;18.94;62.01
34177;BME280;20450;49.074;9.158;2023-06-10T01:27:48;99344.34;;;18.53;62.75
34177;BME280;20450;49.074;9.158;2023-06-10T01:30:19;99358.84;;;18.58;62.45
34177;BME280;20450;49.074;9.158;2023-06-10T01:32:54;99351.19;;;18.65;62.33
34177;BME280;20450;49.074;9.158;2023-06-10T01:35:24;99352.25;;;18.69;61.77
34177;BME280;20450;49.074;9.158;2023-06-10T01:37:54;99349.53;;;18.54;62.55
34177;BME280;20450;49.074;9.158;2023-06-10T01:40:25;99354.19;;;18.59;62.35
34177;BME280;20450;49.074;9.158;2023-06-10T01:42:53;99347.34;;;18.66;63.13
34177;BME280;20450;49.074;9.158;2023-06-10T01:45:20;99350.88;;;18.72;63.52
34177;BME280;20450;49.074;9.158;2023-06-10T01:47:47;99358.28;;;18.76;63.75
34177;BME280;20450;49.074;9.158;2023-06-10T01:50:14;99350.63;;;18.73;63.24
34177;BME280;20450;49.074;9.158;2023-06-10T01:52:41;99357.47;;;18.56;62.94
34177;BME280;20450;49.074;9.158;2023-06-10T01:55:10;99365.41;;;18.47;62.72
34177;BME280;20450;49.074;9.158;2023-06-10T01:57:39;99359.34;;;18.35;63.04
34177;BME280;20450;49.074;9.158;2023-06-10T02:00:07;99361.56;;;18.38;63.52
34177;BME280;20450;49.074;9.158;2023-06-10T02:06:36;99362.34;;;18.34;63.80
34177;BME280;20450;49.074;9.158;2023-06-10T02:09:13;99365.84;;;18.04;64.86
34177;BME280;20450;49.074;9.158;2023-06-10T02:11:41;99364.47;;;18.02;65.68
34177;BME280;20450;49.074;9.158;2023-06-10T02:14:08;99369.38;;;18.00;65.82
34177;BME280;20450;49.074;9.158;2023-06-10T02:16:35;99364.75;;;18.00;66.04
34177;BME280;20450;49.074;9.158;2023-06-10T02:19:04;99362.84;;;18.06;65.60
34177;BME280;20450;49.074;9.158;2023-06-10T02:21:31;99369.41;;;18.10;65.36
34177;BME280;20450;49.074;9.158;2023-06-10T02:23:59;99366.97;;;18.13;64.73
34177;BME280;20450;49.074;9.158;2023-06-10T02:26:26;99368.88;;;18.13;64.38
34177;BME280;20450;49.074;9.158;2023-06-10T02:28:54;99371.31;;;18.14;64.01
34177;BME280;20450;49.074;9.158;2023-06-10T02:31:22;99364.53;;;18.17;63.62
34177;BME280;20450;49.074;9.158;2023-06-10T02:33:49;99366.97;;;18.23;63.82
34177;BME280;20450;49.074;9.158;2023-06-10T02:36:17;99368.91;;;18.28;63.76
34177;BME280;20450;49.074;9.158;2023-06-10T02:38:44;99376.81;;;18.29;63.71
34177;BME280;20450;49.074;9.158;2023-06-10T02:41:11;99377.38;;;18.26;63.77
34177;BME280;20450;49.074;9.158;2023-06-10T02:43:38;99375.19;;;18.18;63.64
34177;BME280;20450;49.074;9.158;2023-06-10T02:46:07;99380.66;;;18.18;63.93
34177;BME280;20450;49.074;9.158;2023-06-10T02:48:41;99386.91;;;18.19;63.79
34177;BME280;20450;49.074;9.158;2023-06-10T02:51:10;99382.00;;;18.16;64.02
34177;BME280;20450;49.074;9.158;2023-06-10T02:53:40;99388.28;;;18.21;63.93
34177;BME280;20450;49.074;9.158;2023-06-10T02:56:10;99387.19;;;18.17;64.62
34177;BME280;20450;49.074;9.158;2023-06-10T02:58:37;99393.19;;;18.14;66.21
34177;BME280;20450;49.074;9.158;2023-06-10T03:01:06;99394.84;;;18.10;67.57
34177;BME280;20450;49.074;9.158;2023-06-10T03:03:42;99386.34;;;18.07;67.87
34177;BME280;20450;49.074;9.158;2023-06-10T03:06:13;99391.00;;;18.06;67.58
34177;BME280;20450;49.074;9.158;2023-06-10T03:09:13;99392.94;;;18.11;68.38
34177;BME280;20450;49.074;9.158;2023-06-10T03:12:00;99391.75;;;17.92;66.45
34177;BME280;20450;49.074;9.158;2023-06-10T03:14:36;99386.25;;;17.77;65.82
34177;BME280;20450;49.074;9.158;2023-06-10T03:17:11;99401.75;;;17.61;66.83
34177;BME280;20450;49.074;9.158;2023-06-10T03:19:41;99401.22;;;17.64;67.83
34177;BME280;20450;49.074;9.158;2023-06-10T03:22:11;99399.34;;;17.70;68.70
34177;BME280;20450;49.074;9.158;2023-06-10T03:24:52;99405.59;;;17.65;69.40
34177;BME280;20450;49.074;9.158;2023-06-10T03:27:23;99402.25;;;17.53;70.59
34177;BME280;20450;49.074;9.158;2023-06-10T03:29:54;99404.34;;;17.41;71.99
34177;BME280;20450;49.074;9.158;2023-06-10T03:32:23;99393.94;;;17.33;73.38
34177;BME280;20450;49.074;9.158;2023-06-10T03:34:50;99398.25;;;17.24;73.59
34177;BME280;20450;49.074;9.158;2023-06-10T03:37:18;99396.09;;;17.26;72.92
34177;BME280;20450;49.074;9.158;2023-06-10T03:39:47;99404.84;;;17.33;71.87
34177;BME280;20450;49.074;9.158;2023-06-10T03:42:14;99404.34;;;17.36;71.46
34177;BME280;20450;49.074;9.158;2023-06-10T03:44:41;99406.75;;;17.32;71.49
34177;BME280;20450;49.074;9.158;2023-06-10T03:47:08;99417.09;;;17.25;71.89
34177;BME280;20450;49.074;9.158;2023-06-10T03:49:38;99413.00;;;17.23;71.12
34177;BME280;20450;49.074;9.158;2023-06-10T03:52:06;99414.47;;;17.40;70.04
34177;BME280;20450;49.074;9.158;2023-06-10T03:54:33;99414.00;;;17.53;68.67
34177;BME280;20450;49.074;9.158;2023-06-10T03:57:00;99417.72;;;17.89;67.25
34177;BME280;20450;49.074;9.158;2023-06-10T03:59:27;99421.13;;;18.26;66.03
34177;BME280;20450;49.074;9.158;2023-06-10T04:01:54;99419.31;;;18.77;64.29
34177;BME280;20450;49.074;9.158;2023-06-10T04:04:23;99417.94;;;19.14;64.51
34177;BME280;20450;49.074;9.158;2023-06-10T04:06:51;99417.09;;;19.49;64.47
34177;BME280;20450;49.074;9.158;2023-06-10T04:09:20;99418.91;;;19.69;63.38
34177;BME280;20450;49.074;9.158;2023-06-10T04:11:47;99419.19;;;19.72;62.90
34177;BME280;20450;49.074;9.158;2023-06-10T04:14:14;99414.63;;;20.11;62.23
34177;BME280;20450;49.074;9.158;2023-06-10T04:16:42;99420.28;;;20.40;61.63
34177;BME280;20450;49.074;9.158;2023-06-10T04:19:11;99422.75;;;20.36;61.52
34177;BME280;20450;49.074;9.158;2023-06-10T04:21:38;99422.88;;;20.60;60.89
34177;BME280;20450;49.074;9.158;2023-06-10T04:24:06;99421.19;;;20.64;61.03
34177;BME280;20450;49.074;9.158;2023-06-10T04:26:34;99427.03;;;20.96;60.10
34177;BME280;20450;49.074;9.158;2023-06-10T04:29:02;99426.78;;;21.21;58.79
34177;BME280;20450;49.074;9.158;2023-06-10T04:31:30;99419.28;;;21.31;58.11
34177;BME280;20450;49.074;9.158;2023-06-10T04:33:57;99427.66;;;21.16;57.90
34177;BME280;20450;49.074;9.158;2023-06-10T04:36:27;99423.63;;;20.70;59.42
34177;BME280;20450;49.074;9.158;2023-06-10T04:38:55;99437.50;;;20.89;59.40
34177;BME280;20450;49.074;9.158;2023-06-10T04:41:23;99438.56;;;20.88;59.21
34177;BME280;20450;49.074;9.158;2023-06-10T04:43:51;99437.44;;;20.99;59.11
34177;BME280;20450;49.074;9.158;2023-06-10T04:46:20;99440.66;;;21.06;59.05
34177;BME280;20450;49.074;9.158;2023-06-10T04:48:47;99437.06;;;21.10;58.84
34177;BME280;20450;49.074;9.158;2023-06-10T04:51:14;99442.72;;;21.19;58.17
34177;BME280;20450;49.074;9.158;2023-06-10T04:53:42;99443.44;;;21.34;57.91
34177;BME280;20450;49.074;9.158;2023-06-10T04:56:10;99444.72;;;21.42;57.38
34177;BME280;20450;49.074;9.158;2023-06-10T04:58:40;99441.72;;;21.67;56.80
34177;BME280;20450;49.074;9.158;2023-06-10T05:01:09;99439.22;;;21.94;56.16
34177;BME280;20450;49.074;9.158;2023-06-10T05:03:36;99443.66;;;22.14;54.71
34177;BME280;20450;49.074;9.158;2023-06-10T05:06:05;99436.47;;;21.94;56.48
34177;BME280;20450;49.074;9.158;2023-06-10T05:08:33;99448.22;;;21.76;56.85
34177;BME280;20450;49.074;9.158;2023-06-10T05:11:00;99441.78;;;22.09;56.23
34177;BME280;20450;49.074;9.158;2023-06-10T05:13:29;99442.63;;;22.28;55.13
34177;BME280;20450;49.074;9.158;2023-06-10T05:15:57;99452.59;;;22.24;54.76
34177;BME280;20450;49.074;9.158;2023-06-10T05:18:24;99450.69;;;22.43;54.69
34177;BME280;20450;49.074;9.158;2023-06-10T05:20:52;99446.09;;;22.76;53.62
34177;BME280;20450;49.074;9.158;2023-06-10T05:23:19;99450.44;;;23.14;51.46
34177;BME280;20450;49.074;9.158;2023-06-10T05:25:46;99449.34;;;23.61;50.94
34177;BME280;20450;49.074;9.158;2023-06-10T05:28:13;99445.00;;;24.14;48.85
34177;BME280;20450;49.074;9.158;2023-06-10T05:30:41;99448.38;;;24.60;47.95
34177;BME280;20450;49.074;9.158;2023-06-10T05:33:09;99452.25;;;25.08;46.76
34177;BME280;20450;49.074;9.158;2023-06-10T05:35:37;99452.00;;;25.40;45.41
34177;BME280;20450;49.074;9.158;2023-06-10T05:38:06;99440.22;;;25.96;44.22
34177;BME280;20450;49.074;9.158;2023-06-10T05:40:33;99451.13;;;26.31;43.62
34177;BME280;20450;49.074;9.158;2023-06-10T05:43:01;99441.09;;;27.04;41.63
34177;BME280;20450;49.074;9.158;2023-06-10T05:45:28;99452.41;;;27.62;40.33
34177;BME280;20450;49.074;9.158;2023-06-10T05:47:56;99450.56;;;27.91;38.62
34177;BME280;20450;49.074;9.158;2023-06-10T05:50:25;99450.69;;;27.15;38.13
34177;BME280;20450;49.074;9.158;2023-06-10T05:52:52;99447.53;;;27.59;38.65
34177;BME280;20450;49.074;9.158;2023-06-10T05:55:20;99454.22;;;28.41;37.10
34177;BME280;20450;49.074;9.158;2023-06-10T05:57:58;99462.75;;;28.36;35.83
34177;BME280;20450;49.074;9.158;2023-06-10T06:00:25;99465.41;;;26.81;39.38
34177;BME280;20450;49.074;9.158;2023-06-10T06:02:53;99461.84;;;26.24;40.13
34177;BME280;20450;49.074;9.158;2023-06-10T06:05:21;99463.59;;;27.11;39.51
34177;BME280;20450;49.074;9.158;2023-06-10T06:07:51;99457.91;;;28.54;36.86
34177;BME280;20450;49.074;9.158;2023-06-10T06:10:27;99462.00;;;27.81;37.23
34177;BME280;20450;49.074;9.158;2023-06-10T06:12:56;99453.69;;;28.48;36.14
34177;BME280;20450;49.074;9.158;2023-06-10T06:15:23;99462.44;;;29.73;34.54
34177;BME280;20450;49.074;9.158;2023-06-10T06:17:50;99464.53;;;29.11;35.01
34177;BME280;20450;49.074;9.158;2023-06-10T06:20:21;99457.56;;;29.05;36.03
34177;BME280;20450;49.074;9.158;2023-06-10T06:22:49;99448.91;;;30.08;34.20
34177;BME280;20450;49.074;9.158;2023-06-10T06:25:17;99459.38;;;28.81;35.19
34177;BME280;20450;49.074;9.158;2023-06-10T06:27:44;99455.59;;;27.98;38.13
34177;BME280;20450;49.074;9.158;2023-06-10T06:30:12;99460.41;;;28.18;37.38
34177;BME280;20450;49.074;9.158;2023-06-10T06:32:40;99456.94;;;27.83;38.51
34177;BME280;20450;49.074;9.158;2023-06-10T06:35:08;99449.25;;;28.97;36.30
34177;BME280;20450;49.074;9.158;2023-06-10T06:37:36;99453.94;;;29.05;36.58
34177;BME280;20450;49.074;9.158;2023-06-10T06:40:17;99451.88;;;30.23;33.69
34177;BME280;20450;49.074;9.158;2023-06-10T06:42:44;99457.50;;;31.15;32.25
34177;BME280;20450;49.074;9.158;2023-06-10T06:45:21;99464.31;;;30.90;32.06
34177;BME280;20450;49.074;9.158;2023-06-10T06:47:48;99457.00;;;31.25;32.08
34177;BME280;20450;49.074;9.158;2023-06-10T06:50:16;99462.22;;;31.97;30.86
34177;BME280;20450;49.074;9.158;2023-06-10T06:52:44;99460.78;;;32.03;31.06
34177;BME280;20450;49.074;9.158;2023-06-10T06:55:11;99459.69;;;32.07;30.75
34177;BME280;20450;49.074;9.158;2023-06-10T06:57:42;99461.25;;;32.36;30.27
34177;BME280;20450;49.074;9.158;2023-06-10T07:00:10;99467.53;;;32.33;30.48
34177;BME280;20450;49.074;9.158;2023-06-10T07:02:38;99457.72;;;32.39;30.35
34177;BME280;20450;49.074;9.158;2023-06-10T07:05:06;99460.75;;;31.17;31.82
34177;BME280;20450;49.074;9.158;2023-06-10T07:07:40;99456.78;;;31.18;32.71
34177;BME280;20450;49.074;9.158;2023-06-10T07:10:12;99460.72;;;31.29;32.52
34177;BME280;20450;49.074;9.158;2023-06-10T07:12:41;99456.00;;;31.45;32.36
34177;BME280;20450;49.074;9.158;2023-06-10T07:15:09;99468.59;;;31.82;31.86
34177;BME280;20450;49.074;9.158;2023-06-10T07:17:37;99463.91;;;30.76;32.99
34177;BME280;20450;49.074;9.158;2023-06-10T07:20:06;99459.78;;;30.73;33.48
34177;BME280;20450;49.074;9.158;2023-06-10T07:22:33;99456.16;;;30.97;32.97
34177;BME280;20450;49.074;9.158;2023-06-10T07:25:00;99458.13;;;31.08;32.57
34177;BME280;20450;49.074;9.158;2023-06-10T07:27:28;99461.16;;;31.58;32.53
34177;BME280;20450;49.074;9.158;2023-06-10T07:29:56;99457.06;;;31.83;32.02
34177;BME280;20450;49.074;9.158;2023-06-10T07:32:24;99455.03;;;31.68;32.14
34177;BME280;20450;49.074;9.158;2023-06-10T07:35:03;99459.84;;;31.68;32.33
34177;BME280;20450;49.074;9.158;2023-06-10T07:37:33;99460.59;;;31.96;31.99
34177;BME280;20450;49.074;9.158;2023-06-10T07:40:00;99458.81;;;32.03;31.50
34177;BME280;20450;49.074;9.158;2023-06-10T07:42:27;99457.44;;;31.97;31.59
34177;BME280;20450;49.074;9.158;2023-06-10T07:44:56;99456.06;;;32.07;31.76
34177;BME280;20450;49.074;9.158;2023-06-10T07:47:22;99450.41;;;31.88;31.77
34177;BME280;20450;49.074;9.158;2023-06-10T07:49:49;99447.03;;;31.67;32.12
34177;BME280;20450;49.074;9.158;2023-06-10T07:52:16;99449.69;;;31.48;32.36
34177;BME280;20450;49.074;9.158;2023-06-10T07:54:43;99447.91;;;31.28;32.93
34177;BME280;20450;49.074;9.158;2023-06-10T07:57:11;99449.34;;;31.22;33.24
34177;BME280;20450;49.074;9.158;2023-06-10T07:59:38;99450.94;;;31.35;33.18
34177;BME280;20450;49.074;9.158;2023-06-10T08:02:06;99445.50;;;31.26;33.00
34177;BME280;20450;49.074;9.158;2023-06-10T08:04:33;99452.28;;;30.50;34.63
34177;BME280;20450;49.074;9.158;2023-06-10T08:07:01;99454.09;;;29.73;35.99
34177;BME280;20450;49.074;9.158;2023-06-10T08:09:28;99455.25;;;29.72;36.23
34177;BME280;20450;49.074;9.158;2023-06-10T08:11:55;99444.75;;;30.14;35.83
34177;BME280;20450;49.074;9.158;2023-06-10T08:14:22;99445.81;;;30.21;35.30
34177;BME280;20450;49.074;9.158;2023-06-10T08:16:49;99441.13;;;30.50;35.45
34177;BME280;20450;49.074;9.158;2023-06-10T08:19:18;99444.34;;;29.79;35.98
34177;BME280;20450;49.074;9.158;2023-06-10T08:21:45;99450.53;;;29.20;38.25
34177;BME280;20450;49.074;9.158;2023-06-10T08:24:11;99436.88;;;29.59;36.41
34177;BME280;20450;49.074;9.158;2023-06-10T08:26:39;99435.22;;;30.15;35.89
34177;BME280;20450;49.074;9.158;2023-06-10T08:29:06;99428.94;;;30.18;35.42
34177;BME280;20450;49.074;9.158;2023-06-10T08:31:33;99429.06;;;29.97;36.78
34177;BME280;20450;49.074;9.158;2023-06-10T08:34:00;99434.84;;;30.04;36.67
34177;BME280;20450;49.074;9.158;2023-06-10T08:36:28;99428.72;;;30.11;36.21
34177;BME280;20450;49.074;9.158;2023-06-10T08:38:55;99433.72;;;30.17;36.17
34177;BME280;20450;49.074;9.158;2023-06-10T08:41:25;99427.91;;;30.34;35.58
34177;BME280;20450;49.074;9.158;2023-06-10T08:44:02;99437.22;;;30.26;35.70
34177;BME280;20450;49.074;9.158;2023-06-10T08:46:36;99430.00;;;30.50;35.56
34177;BME280;20450;49.074;9.158;2023-06-10T08:49:05;99430.91;;;30.54;35.77
34177;BME280;20450;49.074;9.158;2023-06-10T08:51:34;99427.19;;;30.62;35.06
34177;BME280;20450;49.074;9.158;2023-06-10T08:54:08;99426.47;;;30.77;34.41
34177;BME280;20450;49.074;9.158;2023-06-10T08:56:40;99418.63;;;30.42;35.54
34177;BME280;20450;49.074;9.158;2023-06-10T08:59:10;99430.63;;;30.19;36.14
34177;BME280;20450;49.074;9.158;2023-06-10T09:01:38;99424.53;;;30.05;36.07
34177;BME280;20450;49.074;9.158;2023-06-10T09:04:06;99433.31;;;29.26;37.20
34177;BME280;20450;49.074;9.158;2023-06-10T09:06:34;99426.63;;;28.36;38.52
34177;BME280;20450;49.074;9.158;2023-06-10T09:09:03;99432.91;;;27.16;40.83
34177;BME280;20450;49.074;9.158;2023-06-10T09:11:32;99432.97;;;26.90;41.74
34177;BME280;20450;49.074;9.158;2023-06-10T09:13:59;99425.78;;;26.98;42.92
34177;BME280;20450;49.074;9.158;2023-06-10T09:16:26;99425.91;;;26.50;42.18
34177;BME280;20450;49.074;9.158;2023-06-10T09:18:54;99420.03;;;27.11;42.08
34177;BME280;20450;49.074;9.158;2023-06-10T09:21:22;99418.06;;;27.83;41.38
34177;BME280;20450;49.074;9.158;2023-06-10T09:23:51;99421.19;;;27.02;41.22
34177;BME280;20450;49.074;9.158;2023-06-10T09:26:18;99411.69;;;27.83;41.08
34177;BME280;20450;49.074;9.158;2023-06-10T09:28:48;99416.81;;;28.39;39.17
34177;BME280;20450;49.074;9.158;2023-06-10T09:31:16;99410.69;;;27.50;40.11
34177;BME280;20450;49.074;9.158;2023-06-10T09:33:47;99422.97;;;27.15;41.74
34177;BME280;20450;49.074;9.158;2023-06-10T09:36:21;99407.78;;;27.21;41.67
34177;BME280;20450;49.074;9.158;2023-06-10T09:38:51;99406.09;;;27.54;41.01
34177;BME280;20450;49.074;9.158;2023-06-10T09:41:20;99410.56;;;27.38;41.92
34177;BME280;20450;49.074;9.158;2023-06-10T09:43:47;99407.06;;;27.58;40.06
34177;BME280;20450;49.074;9.158;2023-06-10T09:46:20;99424.31;;;26.74;41.12
34177;BME280;20450;49.074;9.158;2023-06-10T09:48:48;99415.31;;;27.03;41.35
34177;BME280;20450;49.074;9.158;2023-06-10T09:51:15;99411.06;;;27.31;39.85
34177;BME280;20450;49.074;9.158;2023-06-10T09:53:42;99395.88;;;28.12;40.44
34177;BME280;20450;49.074;9.158;2023-06-10T09:56:11;99404.75;;;28.55;37.92
34177;BME280;20450;49.074;9.158;2023-06-10T09:58:39;99399.66;;;28.08;39.05
34177;BME280;20450;49.074;9.158;2023-06-10T10:01:11;99404.78;;;28.26;38.32
34177;BME280;20450;49.074;9.158;2023-06-10T10:03:44;99392.84;;;27.59;40.05
34177;BME280;20450;49.074;9.158;2023-06-10T10:06:12;99399.41;;;27.55;39.58
34177;BME280;20450;49.074;9.158;2023-06-10T10:08:39;99388.44;;;28.04;38.67
34177;BME280;20450;49.074;9.158;2023-06-10T10:11:07;99390.41;;;28.74;38.03
34177;BME280;20450;49.074;9.158;2023-06-10T10:13:35;99387.84;;;27.82;37.98
34177;BME280;20450;49.074;9.158;2023-06-10T10:16:08;99397.41;;;27.64;39.05
34177;BME280;20450;49.074;9.158;2023-06-10T10:18:39;99396.94;;;28.28;37.79
34177;BME280;20450;49.074;9.158;2023-06-10T10:21:13;99390.66;;;29.34;37.12
34177;BME280;20450;49.074;9.158;2023-06-10T10:23:48;99385.75;;;29.19;36.57
34177;BME280;20450;49.074;9.158;2023-06-10T10:26:25;99382.69;;;27.63;38.35
34177;BME280;20450;49.074;9.158;2023-06-10T10:29:01;99379.00;;;28.88;36.79
34177;BME280;20450;49.074;9.158;2023-06-10T10:31:37;99377.06;;;27.89;37.65
34177;BME280;20450;49.074;9.158;2023-06-10T10:34:09;99380.72;;;27.72;37.54
34177;BME280;20450;49.074;9.158;2023-06-10T10:36:40;99378.16;;;28.25;37.41
34177;BME280;20450;49.074;9.158;2023-06-10T10:39:08;99375.56;;;28.00;37.58
34177;BME280;20450;49.074;9.158;2023-06-10T10:41:36;99374.25;;;27.60;38.30
34177;BME280;20450;49.074;9.158;2023-06-10T10:44:07;99360.78;;;28.08;37.52
34177;BME280;20450;49.074;9.158;2023-06-10T10:46:42;99372.19;;;29.18;35.66
34177;BME280;20450;49.074;9.158;2023-06-10T10:49:12;99372.66;;;28.46;36.11
34177;BME280;20450;49.074;9.158;2023-06-10T10:51:54;99370.50;;;29.05;34.64
34177;BME280;20450;49.074;9.158;2023-06-10T10:54:31;99367.44;;;29.30;34.20
34177;BME280;20450;49.074;9.158;2023-06-10T10:57:13;99351.41;;;30.08;33.18
34177;BME280;20450;49.074;9.158;2023-06-10T10:59:45;99353.63;;;30.02;33.11
34177;BME280;20450;49.074;9.158;2023-06-10T11:02:18;99363.00;;;29.62;33.29
34177;BME280;20450;49.074;9.158;2023-06-10T11:04:46;99358.41;;;29.33;34.39
34177;BME280;20450;49.074;9.158;2023-06-10T11:07:19;99356.09;;;28.70;34.78
34177;BME280;20450;49.074;9.158;2023-06-10T11:09:57;99355.53;;;27.77;36.65
34177;BME280;20450;49.074;9.158;2023-06-10T11:12:25;99354.31;;;28.86;35.44
34177;BME280;20450;49.074;9.158;2023-06-10T11:14:58;99337.81;;;30.06;33.47
34177;BME280;20450;49.074;9.158;2023-06-10T11:17:26;99349.78;;;30.31;33.35
34177;BME280;20450;49.074;9.158;2023-06-10T11:19:53;99346.50;;;31.24;32.14
34177;BME280;20450;49.074;9.158;2023-06-10T11:22:20;99347.53;;;31.62;30.47
34177;BME280;20450;49.074;9.158;2023-06-10T11:24:47;99340.97;;;31.55;29.51
34177;BME280;20450;49.074;9.158;2023-06-10T11:27:17;99350.06;;;32.14;29.54
34177;BME280;20450;49.074;9.158;2023-06-10T11:30:17;99341.28;;;31.22;29.65
34177;BME280;20450;49.074;9.158;2023-06-10T11:32:50;99340.28;;;30.20;31.94
34177;BME280;20450;49.074;9.158;2023-06-10T11:35:19;99346.41;;;30.01;31.80
34177;BME280;20450;49.074;9.158;2023-06-10T11:37:47;99344.94;;;28.91;33.38
34177;BME280;20450;49.074;9.158;2023-06-10T11:40:14;99341.97;;;29.28;33.34
34177;BME280;20450;49.074;9.158;2023-06-10T11:42:42;99338.44;;;29.64;33.75
34177;BME280;20450;49.074;9.158;2023-06-10T11:45:14;99324.00;;;31.17;30.94
34177;BME280;20450;49.074;9.158;2023-06-10T11:47:55;99327.09;;;31.89;28.38
34177;BME280;20450;49.074;9.158;2023-06-10T11:50:30;99324.88;;;31.05;30.28
34177;BME280;20450;49.074;9.158;2023-06-10T11:52:59;99327.88;;;29.13;31.45
34177;BME280;20450;49.074;9.158;2023-06-10T11:55:40;99331.13;;;28.41;34.09
34177;BME280;20450;49.074;9.158;2023-06-10T11:58:12;99336.31;;;28.72;32.69
34177;BME280;20450;49.074;9.158;2023-06-10T12:00:45;99338.34;;;28.63;33.39
34177;BME280;20450;49.074;9.158;2023-06-10T12:03:13;99325.66;;;29.06;32.45
34177;BME280;20450;49.074;9.158;2023-06-10T12:05:40;99320.66;;;29.56;31.20
34177;BME280;20450;49.074;9.158;2023-06-10T12:08:23;99316.16;;;31.07;29.78
34177;BME280;20450;49.074;9.158;2023-06-10T12:10:53;99322.59;;;30.16;30.88
34177;BME280;20450;49.074;9.158;2023-06-10T12:13:21;99323.19;;;29.97;31.30
34177;BME280;20450;49.074;9.158;2023-06-10T12:15:50;99325.38;;;29.32;32.94
34177;BME280;20450;49.074;9.158;2023-06-10T12:18:18;99320.31;;;29.58;33.18
34177;BME280;20450;49.074;9.158;2023-06-10T12:20:46;99323.53;;;30.60;31.08
34177;BME280;20450;49.074;9.158;2023-06-10T12:23:14;99323.47;;;29.12;31.94
34177;BME280;20450;49.074;9.158;2023-06-10T12:25:49;99306.81;;;30.32;31.58
34177;BME280;20450;49.074;9.158;2023-06-10T12:28:20;99317.06;;;28.25;33.95
34177;BME280;20450;49.074;9.158;2023-06-10T12:30:49;99317.66;;;28.51;34.91
34177;BME280;20450;49.074;9.158;2023-06-10T12:33:18;99314.13;;;28.42;34.64
34177;BME280;20450;49.074;9.158;2023-06-10T12:35:49;99313.72;;;28.32;35.65
34177;BME280;20450;49.074;9.158;2023-06-10T12:38:21;99309.31;;;28.31;34.79
34177;BME280;20450;49.074;9.158;2023-06-10T12:40:50;99316.03;;;28.30;35.19
34177;BME280;20450;49.074;9.158;2023-06-10T12:43:22;99313.13;;;28.47;34.66
34177;BME280;20450;49.074;9.158;2023-06-10T12:45:51;99313.38;;;28.33;34.41
34177;BME280;20450;49.074;9.158;2023-06-10T12:48:20;99325.91;;;28.60;34.38
34177;BME280;20450;49.074;9.158;2023-06-10T12:50:51;99307.47;;;28.55;34.46
34177;BME280;20450;49.074;9.158;2023-06-10T12:53:20;99312.38;;;28.58;34.47
34177;BME280;20450;49.074;9.158;2023-06-10T12:55:48;99310.22;;;28.64;34.59
34177;BME280;20450;49.074;9.158;2023-06-10T12:58:16;99315.97;;;28.18;33.82
34177;BME280;20450;49.074;9.158;2023-06-10T13:00:43;99313.72;;;28.32;33.26
34177;BME280;20450;49.074;9.158;2023-06-10T13:03:12;99315.56;;;28.48;33.62
34177;BME280;20450;49.074;9.158;2023-06-10T13:05:39;99315.47;;;28.57;33.00
34177;BME280;20450;49.074;9.158;2023-06-10T13:08:07;99313.13;;;28.47;32.67
34177;BME280;20450;49.074;9.158;2023-06-10T13:10:36;99310.94;;;28.32;33.83
34177;BME280;20450;49.074;9.158;2023-06-10T13:13:03;99310.19;;;28.02;34.74
34177;BME280;20450;49.074;9.158;2023-06-10T13:15:31;99303.00;;;28.01;35.33